sensor_id;sensor_type;location;lat;lon;timestamp;pressure;altitude;pressure_sealevel;temperature;humidity
68525;BME280;55524;51.380;13.372;2023-04-25T00:00:28;99719.31;;;6.49;90.64
68525;BME280;55524;51.380;13.372;2023-04-25T00:02:54;99722.44;;;6.60;90.28
68525;BME280;55524;51.380;13.372;2023-04-25T00:05:23;99714.56;;;6.61;90.06
68525;BME280;55524;51.380;13.372;2023-04-25T00:07:50;99715.28;;;6.65;89.74
68525;BME280;55524;51.380;13.372;2023-04-25T00:10:16;99719.41;;;6.72;89.65
68525;BME280;55524;51.380;13.372;2023-04-25T00:12:43;99714.91;;;6.77;89.12
68525;BME280;55524;51.380;13.372;2023-04-25T00:15:09;99715.84;;;6.75;89.97
68525;BME280;55524;51.380;13.372;2023-04-25T00:17:36;99723.81;;;6.72;91.17
68525;BME280;55524;51.380;13.372;2023-04-25T00:20:04;99721.94;;;6.75;90.42
68525;BME280;55524;51.380;13.372;2023-04-25T00:22:32;99726.44;;;6.72;90.54
68525;BME280;55524;51.380;13.372;2023-04-25T00:25:00;99722.88;;;6.74;90.72
68525;BME280;55524;51.380;13.372;2023-04-25T00:27:27;99715.00;;;6.74;90.88
68525;BME280;55524;51.380;13.372;2023-04-25T00:29:53;99722.91;;;6.73;91.05
68525;BME280;55524;51.380;13.372;2023-04-25T00:32:19;99721.19;;;6.72;91.02
68525;BME280;55524;51.380;13.372;2023-04-25T00:34:45;99715.03;;;6.73;91.11
68525;BME280;55524;51.380;13.372;2023-04-25T00:37:12;99711.69;;;6.68;90.49
68525;BME280;55524;51.380;13.372;2023-04-25T00:39:38;99701.44;;;6.60;90.99
68525;BME280;55524;51.380;13.372;2023-04-25T00:42:05;99709.53;;;6.54;92.09
68525;BME280;55524;51.380;13.372;2023-04-25T00:44:32;99708.78;;;6.50;91.52
68525;BME280;55524;51.380;13.372;2023-04-25T00:47:00;99702.78;;;6.47;91.39
68525;BME280;55524;51.380;13.372;2023-04-25T00:49:27;99705.44;;;6.45;92.27
68525;BME280;55524;51.380;13.372;2023-04-25T00:51:54;99709.19;;;6.38;93.02
68525;BME280;55524;51.380;13.372;2023-04-25T00:54:20;99709.22;;;6.36;93.12
68525;BME280;55524;51.380;13.372;2023-04-25T00:56:46;99702.25;;;6.35;93.19
68525;BME280;55524;51.380;13.372;2023-04-25T00:59:14;99708.34;;;6.37;93.22
68525;BME280;55524;51.380;13.372;2023-04-25T01:01:41;99701.34;;;6.36;93.44
68525;BME280;55524;51.380;13.372;2023-04-25T01:04:08;99703.88;;;6.39;93.41
68525;BME280;55524;51.380;13.372;2023-04-25T01:06:35;99707.44;;;6.37;93.47
68525;BME280;55524;51.380;13.372;2023-04-25T01:09:02;99708.34;;;6.37;94.06
68525;BME280;55524;51.380;13.372;2023-04-25T01:11:28;99699.53;;;6.38;94.74
68525;BME280;55524;51.380;13.372;2023-04-25T01:13:55;99705.66;;;6.39;94.66
68525;BME280;55524;51.380;13.372;2023-04-25T01:16:22;99707.31;;;6.42;94.47
68525;BME280;55524;51.380;13.372;2023-04-25T01:18:50;99702.09;;;6.40;94.57
68525;BME280;55524;51.380;13.372;2023-04-25T01:21:17;99701.16;;;6.43;95.90
68525;BME280;55524;51.380;13.372;2023-04-25T01:23:43;99704.56;;;6.45;96.36
68525;BME280;55524;51.380;13.372;2023-04-25T01:26:11;99711.56;;;6.46;95.84
68525;BME280;55524;51.380;13.372;2023-04-25T01:28:38;99706.19;;;6.49;96.26
68525;BME280;55524;51.380;13.372;2023-04-25T01:31:08;99700.84;;;6.52;96.42
68525;BME280;55524;51.380;13.372;2023-04-25T01:33:35;99701.09;;;6.44;97.14
68525;BME280;55524;51.380;13.372;2023-04-25T01:36:01;99699.31;;;6.45;97.13
68525;BME280;55524;51.380;13.372;2023-04-25T01:38:28;99698.47;;;6.44;96.52
68525;BME280;55524;51.380;13.372;2023-04-25T01:40:54;99690.81;;;6.38;97.23
68525;BME280;55524;51.380;13.372;2023-04-25T01:43:21;99699.44;;;6.42;97.52
68525;BME280;55524;51.380;13.372;2023-04-25T01:45:49;99700.31;;;6.42;97.13
68525;BME280;55524;51.380;13.372;2023-04-25T01:48:15;99689.06;;;6.38;96.93
68525;BME280;55524;51.380;13.372;2023-04-25T01:50:42;99699.47;;;6.40;97.79
68525;BME280;55524;51.380;13.372;2023-04-25T01:53:09;99695.94;;;6.41;98.76
68525;BME280;55524;51.380;13.372;2023-04-25T01:55:37;99693.22;;;6.44;98.83
68525;BME280;55524;51.380;13.372;2023-04-25T01:58:03;99697.56;;;6.45;98.46
68525;BME280;55524;51.380;13.372;2023-04-25T02:00:37;99700.16;;;6.47;98.35
68525;BME280;55524;51.380;13.372;2023-04-25T02:03:05;99696.66;;;6.46;98.08
68525;BME280;55524;51.380;13.372;2023-04-25T02:05:38;99697.56;;;6.45;98.52
68525;BME280;55524;51.380;13.372;2023-04-25T02:08:08;99696.81;;;6.42;97.30
68525;BME280;55524;51.380;13.372;2023-04-25T02:10:35;99704.03;;;6.35;98.28
68525;BME280;55524;51.380;13.372;2023-04-25T02:13:02;99697.00;;;6.35;98.23
68525;BME280;55524;51.380;13.372;2023-04-25T02:15:29;99706.19;;;6.22;99.03
68525;BME280;55524;51.380;13.372;2023-04-25T02:17:56;99702.06;;;6.13;99.24
68525;BME280;55524;51.380;13.372;2023-04-25T02:20:23;99697.03;;;6.07;99.09
68525;BME280;55524;51.380;13.372;2023-04-25T02:22:49;99700.66;;;6.03;99.62
68525;BME280;55524;51.380;13.372;2023-04-25T02:25:16;99702.75;;;5.92;99.99
68525;BME280;55524;51.380;13.372;2023-04-25T02:27:43;99701.41;;;5.77;100.00
68525;BME280;55524;51.380;13.372;2023-04-25T02:30:09;99698.00;;;5.74;100.00
68525;BME280;55524;51.380;13.372;2023-04-25T02:32:36;99699.19;;;5.63;100.00
68525;BME280;55524;51.380;13.372;2023-04-25T02:35:02;99702.06;;;5.54;100.00
68525;BME280;55524;51.380;13.372;2023-04-25T02:37:34;99698.00;;;5.44;100.00
68525;BME280;55524;51.380;13.372;2023-04-25T02:40:01;99696.41;;;5.38;100.00
68525;BME280;55524;51.380;13.372;2023-04-25T02:42:29;99699.00;;;5.40;100.00
68525;BME280;55524;51.380;13.372;2023-04-25T02:44:55;99688.53;;;5.38;100.00
68525;BME280;55524;51.380;13.372;2023-04-25T02:47:22;99687.44;;;5.47;100.00
68525;BME280;55524;51.380;13.372;2023-04-25T02:49:48;99685.03;;;5.39;100.00
68525;BME280;55524;51.380;13.372;2023-04-25T02:52:14;99692.06;;;5.37;100.00
68525;BME280;55524;51.380;13.372;2023-04-25T02:54:41;99689.59;;;5.33;100.00
68525;BME280;55524;51.380;13.372;2023-04-25T02:57:07;99693.00;;;5.36;100.00
68525;BME280;55524;51.380;13.372;2023-04-25T02:59:34;99690.38;;;5.36;99.84
68525;BME280;55524;51.380;13.372;2023-04-25T03:02:00;99687.81;;;5.33;100.00
68525;BME280;55524;51.380;13.372;2023-04-25T03:04:27;99683.56;;;5.29;100.00
68525;BME280;55524;51.380;13.372;2023-04-25T03:06:54;99685.41;;;5.27;100.00
68525;BME280;55524;51.380;13.372;2023-04-25T03:09:21;99687.16;;;5.27;99.76
68525;BME280;55524;51.380;13.372;2023-04-25T03:11:47;99681.94;;;5.27;99.90
68525;BME280;55524;51.380;13.372;2023-04-25T03:14:13;99686.38;;;5.23;99.68
68525;BME280;55524;51.380;13.372;2023-04-25T03:16:40;99682.22;;;5.14;99.70
68525;BME280;55524;51.380;13.372;2023-04-25T03:19:06;99686.63;;;5.14;99.75
68525;BME280;55524;51.380;13.372;2023-04-25T03:21:34;99689.38;;;5.09;100.00
68525;BME280;55524;51.380;13.372;2023-04-25T03:24:02;99688.59;;;5.06;100.00
68525;BME280;55524;51.380;13.372;2023-04-25T03:26:28;99687.09;;;4.97;100.00
68525;BME280;55524;51.380;13.372;2023-04-25T03:28:55;99679.31;;;4.94;100.00
68525;BME280;55524;51.380;13.372;2023-04-25T03:31:21;99689.78;;;4.94;100.00
68525;BME280;55524;51.380;13.372;2023-04-25T03:33:48;99683.66;;;4.95;100.00
68525;BME280;55524;51.380;13.372;2023-04-25T03:36:14;99684.75;;;4.86;100.00
68525;BME280;55524;51.380;13.372;2023-04-25T03:38:41;99688.34;;;4.82;100.00
68525;BME280;55524;51.380;13.372;2023-04-25T03:41:10;99692.69;;;4.83;100.00
68525;BME280;55524;51.380;13.372;2023-04-25T03:43:36;99692.84;;;4.77;100.00
68525;BME280;55524;51.380;13.372;2023-04-25T03:46:02;99697.09;;;4.81;100.00
68525;BME280;55524;51.380;13.372;2023-04-25T03:48:29;99697.16;;;4.78;100.00
68525;BME280;55524;51.380;13.372;2023-04-25T03:50:55;99698.00;;;4.80;100.00
68525;BME280;55524;51.380;13.372;2023-04-25T03:53:21;99699.78;;;4.78;100.00
68525;BME280;55524;51.380;13.372;2023-04-25T03:55:48;99700.81;;;4.73;100.00
68525;BME280;55524;51.380;13.372;2023-04-25T03:58:14;99705.28;;;4.69;100.00
68525;BME280;55524;51.380;13.372;2023-04-25T04:00:40;99706.97;;;4.72;99.81
68525;BME280;55524;51.380;13.372;2023-04-25T04:03:07;99698.31;;;4.68;100.00
68525;BME280;55524;51.380;13.372;2023-04-25T04:05:33;99695.72;;;4.66;100.00
68525;BME280;55524;51.380;13.372;2023-04-25T04:07:59;99699.31;;;4.64;100.00
68525;BME280;55524;51.380;13.372;2023-04-25T04:10:25;99701.19;;;4.57;100.00
68525;BME280;55524;51.380;13.372;2023-04-25T04:12:52;99701.19;;;4.57;100.00
68525;BME280;55524;51.380;13.372;2023-04-25T04:15:18;99703.03;;;4.54;100.00
68525;BME280;55524;51.380;13.372;2023-04-25T04:17:44;99702.97;;;4.57;100.00
68525;BME280;55524;51.380;13.372;2023-04-25T04:20:12;99706.38;;;4.60;100.00
68525;BME280;55524;51.380;13.372;2023-04-25T04:22:39;99704.59;;;4.61;100.00
68525;BME280;55524;51.380;13.372;2023-04-25T04:25:05;99705.53;;;4.58;100.00
68525;BME280;55524;51.380;13.372;2023-04-25T04:27:32;99706.97;;;4.72;100.00
68525;BME280;55524;51.380;13.372;2023-04-25T04:29:59;99712.09;;;4.75;100.00
68525;BME280;55524;51.380;13.372;2023-04-25T04:32:25;99711.28;;;4.73;100.00
68525;BME280;55524;51.380;13.372;2023-04-25T04:34:51;99706.72;;;4.81;100.00
68525;BME280;55524;51.380;13.372;2023-04-25T04:37:18;99711.03;;;4.83;99.42
68525;BME280;55524;51.380;13.372;2023-04-25T04:39:44;99708.09;;;4.94;98.99
68525;BME280;55524;51.380;13.372;2023-04-25T04:42:11;99711.44;;;5.01;98.25
68525;BME280;55524;51.380;13.372;2023-04-25T04:44:37;99704.44;;;5.01;98.65
68525;BME280;55524;51.380;13.372;2023-04-25T04:47:05;99712.00;;;5.12;97.12
68525;BME280;55524;51.380;13.372;2023-04-25T04:49:32;99709.13;;;5.21;97.16
68525;BME280;55524;51.380;13.372;2023-04-25T04:51:59;99711.53;;;5.29;96.62
68525;BME280;55524;51.380;13.372;2023-04-25T04:54:26;99707.94;;;5.33;97.12
68525;BME280;55524;51.380;13.372;2023-04-25T04:56:53;99718.13;;;5.42;96.85
68525;BME280;55524;51.380;13.372;2023-04-25T04:59:19;99714.59;;;5.45;96.42
68525;BME280;55524;51.380;13.372;2023-04-25T05:01:45;99711.03;;;5.47;96.25
68525;BME280;55524;51.380;13.372;2023-04-25T05:04:12;99716.00;;;5.56;97.02
68525;BME280;55524;51.380;13.372;2023-04-25T05:06:39;99716.63;;;5.64;95.66
68525;BME280;55524;51.380;13.372;2023-04-25T05:09:06;99717.50;;;5.65;95.75
68525;BME280;55524;51.380;13.372;2023-04-25T05:11:32;99714.56;;;5.76;95.37
68525;BME280;55524;51.380;13.372;2023-04-25T05:13:59;99721.44;;;5.80;94.39
68525;BME280;55524;51.380;13.372;2023-04-25T05:16:25;99717.38;;;5.99;92.43
68525;BME280;55524;51.380;13.372;2023-04-25T05:18:51;99724.13;;;6.08;91.99
68525;BME280;55524;51.380;13.372;2023-04-25T05:21:18;99724.81;;;6.13;92.26
68525;BME280;55524;51.380;13.372;2023-04-25T05:23:44;99724.56;;;6.22;92.16
68525;BME280;55524;51.380;13.372;2023-04-25T05:26:10;99726.94;;;6.30;92.21
68525;BME280;55524;51.380;13.372;2023-04-25T05:28:40;99717.06;;;6.38;91.08
68525;BME280;55524;51.380;13.372;2023-04-25T05:31:09;99713.31;;;6.45;91.71
68525;BME280;55524;51.380;13.372;2023-04-25T05:33:35;99712.19;;;6.52;90.41
68525;BME280;55524;51.380;13.372;2023-04-25T05:36:02;99709.22;;;6.63;89.23
68525;BME280;55524;51.380;13.372;2023-04-25T05:38:28;99713.41;;;6.69;87.52
68525;BME280;55524;51.380;13.372;2023-04-25T05:40:55;99709.75;;;6.74;87.18
68525;BME280;55524;51.380;13.372;2023-04-25T05:43:21;99704.25;;;6.80;86.87
68525;BME280;55524;51.380;13.372;2023-04-25T05:45:48;99719.00;;;6.84;87.42
68525;BME280;55524;51.380;13.372;2023-04-25T05:48:14;99718.81;;;6.90;86.58
68525;BME280;55524;51.380;13.372;2023-04-25T05:50:40;99724.81;;;6.94;86.33
68525;BME280;55524;51.380;13.372;2023-04-25T05:53:06;99717.72;;;6.96;85.47
68525;BME280;55524;51.380;13.372;2023-04-25T05:55:33;99715.16;;;6.95;86.24
68525;BME280;55524;51.380;13.372;2023-04-25T05:57:59;99718.53;;;6.98;84.31
68525;BME280;55524;51.380;13.372;2023-04-25T06:00:25;99723.75;;;7.00;85.12
68525;BME280;55524;51.380;13.372;2023-04-25T06:02:52;99722.78;;;7.02;84.93
68525;BME280;55524;51.380;13.372;2023-04-25T06:05:18;99727.88;;;7.07;85.62
68525;BME280;55524;51.380;13.372;2023-04-25T06:07:44;99723.31;;;7.12;85.89
68525;BME280;55524;51.380;13.372;2023-04-25T06:10:11;99725.78;;;7.17;85.38
68525;BME280;55524;51.380;13.372;2023-04-25T06:12:37;99726.66;;;7.17;84.61
68525;BME280;55524;51.380;13.372;2023-04-25T06:15:05;99723.75;;;7.25;84.48
68525;BME280;55524;51.380;13.372;2023-04-25T06:17:31;99734.63;;;7.39;84.80
68525;BME280;55524;51.380;13.372;2023-04-25T06:19:57;99742.13;;;7.50;85.42
68525;BME280;55524;51.380;13.372;2023-04-25T06:22:24;99730.75;;;7.49;84.91
68525;BME280;55524;51.380;13.372;2023-04-25T06:24:50;99730.13;;;7.66;84.68
68525;BME280;55524;51.380;13.372;2023-04-25T06:27:16;99736.13;;;7.70;84.17
68525;BME280;55524;51.380;13.372;2023-04-25T06:29:42;99726.97;;;7.80;84.17
68525;BME280;55524;51.380;13.372;2023-04-25T06:32:09;99715.88;;;7.72;81.65
68525;BME280;55524;51.380;13.372;2023-04-25T06:34:35;99711.94;;;7.60;81.63
68525;BME280;55524;51.380;13.372;2023-04-25T06:37:01;99733.06;;;7.82;83.00
68525;BME280;55524;51.380;13.372;2023-04-25T06:39:27;99722.75;;;7.76;81.98
68525;BME280;55524;51.380;13.372;2023-04-25T06:41:54;99722.59;;;7.80;81.55
68525;BME280;55524;51.380;13.372;2023-04-25T06:44:20;99724.25;;;7.83;82.03
68525;BME280;55524;51.380;13.372;2023-04-25T06:46:49;99721.03;;;7.98;81.19
68525;BME280;55524;51.380;13.372;2023-04-25T06:49:15;99724.22;;;8.06;81.16
68525;BME280;55524;51.380;13.372;2023-04-25T06:51:41;99715.66;;;8.23;80.28
68525;BME280;55524;51.380;13.372;2023-04-25T06:54:08;99711.59;;;8.38;79.61
68525;BME280;55524;51.380;13.372;2023-04-25T06:56:34;99702.78;;;8.39;78.82
68525;BME280;55524;51.380;13.372;2023-04-25T06:59:00;99701.25;;;8.55;78.86
68525;BME280;55524;51.380;13.372;2023-04-25T07:01:27;99690.13;;;8.69;77.91
68525;BME280;55524;51.380;13.372;2023-04-25T07:03:53;99694.75;;;8.84;77.29
68525;BME280;55524;51.380;13.372;2023-04-25T07:06:19;99687.06;;;9.00;77.06
68525;BME280;55524;51.380;13.372;2023-04-25T07:08:46;99695.34;;;9.32;76.46
68525;BME280;55524;51.380;13.372;2023-04-25T07:11:12;99689.34;;;9.28;75.80
68525;BME280;55524;51.380;13.372;2023-04-25T07:13:39;99697.56;;;9.41;76.47
68525;BME280;55524;51.380;13.372;2023-04-25T07:16:05;99683.59;;;9.39;73.91
68525;BME280;55524;51.380;13.372;2023-04-25T07:18:31;99680.44;;;9.31;73.12
68525;BME280;55524;51.380;13.372;2023-04-25T07:20:58;99669.16;;;9.67;72.29
68525;BME280;55524;51.380;13.372;2023-04-25T07:23:24;99676.84;;;9.90;71.78
68525;BME280;55524;51.380;13.372;2023-04-25T07:25:50;99681.06;;;9.75;73.39
68525;BME280;55524;51.380;13.372;2023-04-25T07:28:16;99674.75;;;9.78;72.21
68525;BME280;55524;51.380;13.372;2023-04-25T07:30:44;99691.25;;;10.02;72.92
68525;BME280;55524;51.380;13.372;2023-04-25T07:33:10;99675.75;;;9.56;70.81
68525;BME280;55524;51.380;13.372;2023-04-25T07:35:36;99685.13;;;9.64;71.44
68525;BME280;55524;51.380;13.372;2023-04-25T07:38:03;99690.13;;;10.26;72.75
68525;BME280;55524;51.380;13.372;2023-04-25T07:40:29;99668.06;;;10.45;70.50
68525;BME280;55524;51.380;13.372;2023-04-25T07:42:56;99671.66;;;10.44;70.83
68525;BME280;55524;51.380;13.372;2023-04-25T07:45:22;99683.25;;;10.58;71.37
68525;BME280;55524;51.380;13.372;2023-04-25T07:47:49;99672.22;;;10.68;69.39
68525;BME280;55524;51.380;13.372;2023-04-25T07:50:16;99691.94;;;10.43;70.29
68525;BME280;55524;51.380;13.372;2023-04-25T07:52:42;99674.25;;;10.97;68.93
68525;BME280;55524;51.380;13.372;2023-04-25T07:55:09;99680.03;;;10.52;68.60
68525;BME280;55524;51.380;13.372;2023-04-25T07:57:35;99689.66;;;10.17;70.62
68525;BME280;55524;51.380;13.372;2023-04-25T08:00:01;99709.94;;;9.97;71.24
68525;BME280;55524;51.380;13.372;2023-04-25T08:02:28;99706.63;;;9.73;71.73
68525;BME280;55524;51.380;13.372;2023-04-25T08:04:54;99734.75;;;9.74;73.27
68525;BME280;55524;51.380;13.372;2023-04-25T08:07:21;99703.19;;;10.29;71.23
68525;BME280;55524;51.380;13.372;2023-04-25T08:09:47;99696.81;;;10.33;69.96
68525;BME280;55524;51.380;13.372;2023-04-25T08:12:13;99705.59;;;10.34;70.52
68525;BME280;55524;51.380;13.372;2023-04-25T08:14:39;99715.28;;;9.96;70.79
68525;BME280;55524;51.380;13.372;2023-04-25T08:17:05;99714.88;;;9.86;71.27
68525;BME280;55524;51.380;13.372;2023-04-25T08:19:32;99723.97;;;10.17;71.81
68525;BME280;55524;51.380;13.372;2023-04-25T08:21:58;99724.19;;;10.12;71.83
68525;BME280;55524;51.380;13.372;2023-04-25T08:24:24;99712.94;;;10.27;70.33
68525;BME280;55524;51.380;13.372;2023-04-25T08:26:51;99725.28;;;10.27;71.16
68525;BME280;55524;51.380;13.372;2023-04-25T08:29:18;99728.53;;;10.13;71.09
68525;BME280;55524;51.380;13.372;2023-04-25T08:31:44;99739.28;;;10.10;71.51
68525;BME280;55524;51.380;13.372;2023-04-25T08:34:11;99746.47;;;9.88;71.94
68525;BME280;55524;51.380;13.372;2023-04-25T08:36:38;99766.00;;;9.83;73.80
68525;BME280;55524;51.380;13.372;2023-04-25T08:39:04;99763.72;;;9.76;73.22
68525;BME280;55524;51.380;13.372;2023-04-25T08:41:31;99780.97;;;9.83;74.86
68525;BME280;55524;51.380;13.372;2023-04-25T08:43:58;99780.19;;;9.81;73.84
68525;BME280;55524;51.380;13.372;2023-04-25T08:46:26;99776.81;;;9.58;73.94
68525;BME280;55524;51.380;13.372;2023-04-25T08:48:53;99779.88;;;9.68;74.16
68525;BME280;55524;51.380;13.372;2023-04-25T08:51:23;99776.25;;;9.71;74.04
68525;BME280;55524;51.380;13.372;2023-04-25T08:53:53;99791.75;;;9.38;73.70
68525;BME280;55524;51.380;13.372;2023-04-25T08:56:20;99787.09;;;9.44;74.15
68525;BME280;55524;51.380;13.372;2023-04-25T08:58:49;99800.59;;;9.36;75.45
68525;BME280;55524;51.380;13.372;2023-04-25T09:01:18;99806.16;;;9.51;75.76
68525;BME280;55524;51.380;13.372;2023-04-25T09:03:45;99814.09;;;9.49;76.43
68525;BME280;55524;51.380;13.372;2023-04-25T09:06:13;99789.97;;;9.38;74.50
68525;BME280;55524;51.380;13.372;2023-04-25T09:08:41;99816.34;;;9.38;75.63
68525;BME280;55524;51.380;13.372;2023-04-25T09:11:07;99793.09;;;9.48;74.77
68525;BME280;55524;51.380;13.372;2023-04-25T09:13:34;99815.03;;;9.48;75.85
68525;BME280;55524;51.380;13.372;2023-04-25T09:16:00;99821.56;;;9.60;75.80
68525;BME280;55524;51.380;13.372;2023-04-25T09:18:31;99809.34;;;9.78;74.49
68525;BME280;55524;51.380;13.372;2023-04-25T09:21:09;99814.44;;;9.82;75.21
68525;BME280;55524;51.380;13.372;2023-04-25T09:23:47;99806.44;;;9.84;74.53
68525;BME280;55524;51.380;13.372;2023-04-25T09:26:17;99818.50;;;9.90;74.77
68525;BME280;55524;51.380;13.372;2023-04-25T09:28:44;99827.47;;;9.85;75.44
68525;BME280;55524;51.380;13.372;2023-04-25T09:31:11;99824.78;;;9.87;74.67
68525;BME280;55524;51.380;13.372;2023-04-25T09:33:38;99834.03;;;9.56;75.54
68525;BME280;55524;51.380;13.372;2023-04-25T09:36:05;99851.03;;;9.49;76.35
68525;BME280;55524;51.380;13.372;2023-04-25T09:38:45;99842.78;;;9.36;76.27
68525;BME280;55524;51.380;13.372;2023-04-25T09:41:12;99865.28;;;9.45;77.93
68525;BME280;55524;51.380;13.372;2023-04-25T09:43:39;99859.78;;;9.29;77.16
68525;BME280;55524;51.380;13.372;2023-04-25T09:46:09;99870.78;;;9.19;78.21
68525;BME280;55524;51.380;13.372;2023-04-25T09:48:37;99867.53;;;9.12;79.06
68525;BME280;55524;51.380;13.372;2023-04-25T09:53:31;99870.97;;;8.92;79.60
68525;BME280;55524;51.380;13.372;2023-04-25T09:56:00;99886.22;;;9.06;80.52
68525;BME280;55524;51.380;13.372;2023-04-25T09:58:30;99876.91;;;8.97;80.38
68525;BME280;55524;51.380;13.372;2023-04-25T10:01:00;99891.84;;;8.75;80.47
68525;BME280;55524;51.380;13.372;2023-04-25T10:03:31;99895.66;;;8.68;81.09
68525;BME280;55524;51.380;13.372;2023-04-25T10:06:02;99912.25;;;8.46;83.22
68525;BME280;55524;51.380;13.372;2023-04-25T10:08:36;99919.59;;;8.38;85.44
68525;BME280;55524;51.380;13.372;2023-04-25T10:11:07;99935.22;;;7.93;87.55
68525;BME280;55524;51.380;13.372;2023-04-25T10:13:35;99931.19;;;8.07;88.79
68525;BME280;55524;51.380;13.372;2023-04-25T10:16:04;99914.78;;;8.01;84.62
68525;BME280;55524;51.380;13.372;2023-04-25T10:18:32;99924.09;;;8.09;84.44
68525;BME280;55524;51.380;13.372;2023-04-25T10:21:01;99925.78;;;8.12;84.16
68525;BME280;55524;51.380;13.372;2023-04-25T10:23:29;99905.34;;;8.19;80.97
68525;BME280;55524;51.380;13.372;2023-04-25T10:25:57;99898.72;;;8.32;80.38
68525;BME280;55524;51.380;13.372;2023-04-25T10:28:24;99896.75;;;8.38;79.06
68525;BME280;55524;51.380;13.372;2023-04-25T10:31:01;99868.97;;;8.30;75.39
68525;BME280;55524;51.380;13.372;2023-04-25T10:33:39;99877.53;;;8.35;74.81
68525;BME280;55524;51.380;13.372;2023-04-25T10:36:17;99870.56;;;8.34;74.58
68525;BME280;55524;51.380;13.372;2023-04-25T10:38:45;99901.38;;;8.32;76.52
68525;BME280;55524;51.380;13.372;2023-04-25T10:41:12;99900.75;;;8.49;76.25
68525;BME280;55524;51.380;13.372;2023-04-25T10:43:43;99893.78;;;8.48;75.75
68525;BME280;55524;51.380;13.372;2023-04-25T10:46:23;99906.22;;;8.90;76.75
68525;BME280;55524;51.380;13.372;2023-04-25T10:48:58;99881.75;;;9.08;74.06
68525;BME280;55524;51.380;13.372;2023-04-25T10:51:31;99860.00;;;9.66;72.11
68525;BME280;55524;51.380;13.372;2023-04-25T10:54:08;99834.50;;;10.05;69.98
68525;BME280;55524;51.380;13.372;2023-04-25T10:56:38;99810.53;;;10.30;67.08
68525;BME280;55524;51.380;13.372;2023-04-25T10:59:12;99831.03;;;10.24;68.63
68525;BME280;55524;51.380;13.372;2023-04-25T11:01:40;99828.94;;;10.12;68.79
68525;BME280;55524;51.380;13.372;2023-04-25T11:04:19;99803.84;;;10.22;67.00
68525;BME280;55524;51.380;13.372;2023-04-25T11:07:07;99807.34;;;10.60;66.46
68525;BME280;55524;51.380;13.372;2023-04-25T11:09:39;99825.78;;;10.62;66.72
68525;BME280;55524;51.380;13.372;2023-04-25T11:12:08;99807.53;;;10.38;64.56
68525;BME280;55524;51.380;13.372;2023-04-25T11:14:35;99789.78;;;10.59;63.15
68525;BME280;55524;51.380;13.372;2023-04-25T11:17:01;99823.41;;;10.18;65.56
68525;BME280;55524;51.380;13.372;2023-04-25T11:19:29;99837.59;;;9.76;65.70
68525;BME280;55524;51.380;13.372;2023-04-25T11:21:59;99845.56;;;9.95;66.31
68525;BME280;55524;51.380;13.372;2023-04-25T11:24:31;99853.53;;;9.93;67.24
68525;BME280;55524;51.380;13.372;2023-04-25T11:27:01;99857.13;;;9.72;66.98
68525;BME280;55524;51.380;13.372;2023-04-25T11:29:32;99855.13;;;9.77;66.63
68525;BME280;55524;51.380;13.372;2023-04-25T11:31:59;99863.63;;;9.83;68.33
68525;BME280;55524;51.380;13.372;2023-04-25T11:34:27;99855.78;;;10.02;67.64
68525;BME280;55524;51.380;13.372;2023-04-25T11:36:56;99868.84;;;10.24;68.59
68525;BME280;55524;51.380;13.372;2023-04-25T11:39:24;99848.34;;;10.31;66.42
68525;BME280;55524;51.380;13.372;2023-04-25T11:41:52;99848.84;;;10.00;66.46
68525;BME280;55524;51.380;13.372;2023-04-25T11:44:19;99855.72;;;10.23;66.81
68525;BME280;55524;51.380;13.372;2023-04-25T11:46:46;99849.38;;;9.88;65.64
68525;BME280;55524;51.380;13.372;2023-04-25T11:49:14;99845.84;;;10.07;65.91
68525;BME280;55524;51.380;13.372;2023-04-25T11:51:42;99834.00;;;10.16;64.85
68525;BME280;55524;51.380;13.372;2023-04-25T11:54:09;99841.25;;;9.92;63.67
68525;BME280;55524;51.380;13.372;2023-04-25T11:56:40;99838.50;;;9.95;64.19
68525;BME280;55524;51.380;13.372;2023-04-25T11:59:07;99833.41;;;9.91;63.87
68525;BME280;55524;51.380;13.372;2023-04-25T12:01:35;99829.94;;;10.09;63.67
68525;BME280;55524;51.380;13.372;2023-04-25T12:04:22;99840.69;;;10.25;64.26
68525;BME280;55524;51.380;13.372;2023-04-25T12:06:51;99835.34;;;10.26;63.65
68525;BME280;55524;51.380;13.372;2023-04-25T12:09:20;99861.34;;;10.36;65.75
68525;BME280;55524;51.380;13.372;2023-04-25T12:11:54;99840.88;;;10.20;63.90
68525;BME280;55524;51.380;13.372;2023-04-25T12:14:28;99869.09;;;9.99;65.92
68525;BME280;55524;51.380;13.372;2023-04-25T12:16:56;99857.38;;;9.86;66.10
68525;BME280;55524;51.380;13.372;2023-04-25T12:19:24;99872.09;;;9.71;66.41
68525;BME280;55524;51.380;13.372;2023-04-25T12:21:51;99869.66;;;9.67;66.61
68525;BME280;55524;51.380;13.372;2023-04-25T12:24:21;99880.34;;;9.64;67.24
68525;BME280;55524;51.380;13.372;2023-04-25T12:27:01;99880.00;;;9.51;66.67
68525;BME280;55524;51.380;13.372;2023-04-25T12:29:30;99884.69;;;9.65;66.76
68525;BME280;55524;51.380;13.372;2023-04-25T12:31:58;99884.72;;;10.04;67.24
68525;BME280;55524;51.380;13.372;2023-04-25T12:34:25;99860.13;;;10.03;64.33
68525;BME280;55524;51.380;13.372;2023-04-25T12:36:52;99854.94;;;10.02;62.25
68525;BME280;55524;51.380;13.372;2023-04-25T12:39:21;99839.34;;;10.35;61.57
68525;BME280;55524;51.380;13.372;2023-04-25T12:41:48;99833.72;;;10.43;61.09
68525;BME280;55524;51.380;13.372;2023-04-25T12:44:14;99838.47;;;10.72;61.78
68525;BME280;55524;51.380;13.372;2023-04-25T12:46:41;99815.34;;;10.58;60.12
68525;BME280;55524;51.380;13.372;2023-04-25T12:49:08;99834.94;;;10.54;60.27
68525;BME280;55524;51.380;13.372;2023-04-25T12:51:35;99818.75;;;10.61;59.51
68525;BME280;55524;51.380;13.372;2023-04-25T12:54:03;99819.94;;;10.55;60.15
68525;BME280;55524;51.380;13.372;2023-04-25T12:56:31;99822.06;;;10.28;59.47
68525;BME280;55524;51.380;13.372;2023-04-25T12:58:57;99802.66;;;10.48;58.55
68525;BME280;55524;51.380;13.372;2023-04-25T13:01:24;99813.44;;;10.43;57.53